Угольный

Карта отелей и гостиниц, располагающихся рядом с аэропортом Угольный :



Угольный
Анадырь
Чукотский автономный округ 64° 44' 5.82" N, 177° 44' 29.58" E
Код аэродрома ИКАО: 
UHMA
Код аэродрома RU: 
УХМА
Координаты: 
N64.73495° E177.74155°
Превышение над уровнем моря : 
59
Основная полоса: 
01/19
Курс магнитный: 
012,2/192,2
Длина основной ВПП: 
3500
Ширина основной ВПП: 
60
Покрытие основной ВПП: 
Твёрдое
Тип: 
Аэродром
Освещение ВПП: 
Постоянное
Класс аэродрома: 
Международный
Статус: 
Действующий
Принадлежность: 
ГА
Страна: 
Россия
Регион: 
Чукотский автономный округ
Город: 
Анадырь
Дополнительная информация: 
Военный индекс: ЬХМА/XHMA. Оператор: нет данных.
Схемы аэропортов: 
Погода: 

Авиационная погода в Угольном

Регион: 
Погода METAR: 
UHMA 311300Z 15005MPS CAVOK M09/M14 Q1004 R01/////// NOSIG RMK TDZ R01/15005G06MPS END R01/17005MPS QFE749/0999
Время наблюдения: 
2020-03-31T13:00:00Z
Температура C: 
-9.0
Точка росы: 
-14.0
Направление ветра: 
150
Скорость ветра: 
10
Метеорологическая видимость: 
6.21
Условия полета: 
VFR
Аэропорт подробнее: 

Найти трансфер

С помощью этой формы Вы можете найти трансфер из аэропорта Угольный в город, аэропорт или вокзал:

Карта места

Javascript is required to view this map.

Погода в аэропортах:

Авиационная погода в Куусамо

Регион: 
Погода METAR: 
EFKS 311250Z AUTO 19018G28KT 0650 R30/1100D SN OVC012 M07/M08 Q0993
Время наблюдения: 
2020-03-31T12:50:00Z
Температура C: 
-7.0
Точка росы: 
-8.0
Направление ветра: 
190
Скорость ветра: 
18
Метеорологическая видимость: 
0.4
Явления погоды: 
SN
Условия полета: 
LIFR

Авиационная погода в Москве - Остафьево

Регион: 
Погода METAR: 
UUMO 311300Z 34007MPS 320V020 4000 -SHSN BKN013 OVC033CB M03/M06 Q1012 R08/550242 NOSIG RMK QFE744/0993
Время наблюдения: 
2020-03-31T13:00:00Z
Температура C: 
-3.0
Точка росы: 
-6.0
Направление ветра: 
340
Скорость ветра: 
14
Метеорологическая видимость: 
2.49
Явления погоды: 
-SHSN
Условия полета: 
IFR
Аэропорт подробнее: 

Авиационная погода в Ивало

Регион: 
Погода METAR: 
EFIV 311250Z AUTO 17008KT 130V210 3800 -SN FEW015 OVC020 M04/M07 Q0986
Время наблюдения: 
2020-03-31T12:50:00Z
Температура C: 
-4.0
Точка росы: 
-7.0
Направление ветра: 
170
Скорость ветра: 
8
Метеорологическая видимость: 
2.36
Явления погоды: 
-SN
Условия полета: 
IFR

Авиационная погода в Москва - Внуково

Регион: 
Погода METAR: 
UUWW 311300Z 33008MPS 5000 -SN OVC020 M03/M08 Q1013 R24/520345 TEMPO 0600 +SHSN BKN020CB
Время наблюдения: 
2020-03-31T13:00:00Z
Температура C: 
-3.0
Точка росы: 
-8.0
Направление ветра: 
330
Скорость ветра: 
16
Метеорологическая видимость: 
3.11
Явления погоды: 
-SN
Условия полета: 
MVFR
Аэропорт подробнее: